Terminal Aerodrome Forecast
Issued by NWS North Platte, NE

Home | Current Version | Previous Version | Graphics & Text | Print | Product List | Glossary On
Versions: 1 2 3 4 5 6 7 8 9 10 11 12 13 14
099
FTUS43 KLBF 201720
TAFVTN
TAF
KVTN 201720Z 2018/2118 27015KT P6SM SKC
     FM202200 23010KT P6SM SKC
     FM202300 20009KT P6SM SKC
     FM210200 17008KT P6SM FEW250
     FM210600 17012KT P6SM FEW250 WS020/18035KT
     FM211400 17016G22KT P6SM FEW250=

USA.gov is the U.S. government's official web portal to all federal, state and local government web resources and services.